Aérodrome :
LOGIN :

S'inscrire | Disclaimer

   EN    FR    IT 

 










Légende :    VFR   VFR Marginal   IFR   IFR Intensif   IFR Très Intensif
Visi : 
Plafond : 
>= 8 km
>= 3000ft
5 à 8 km
1000 à 3000 ft
1500m à 5 km
500 à 1000 ft
800 à 1500m
200 à 500 ft
< 800m
< 200 ft
Symboles :   Orages  Brouillard  Fortes neiges  Fortes précipitations  Vent > 20 kt
SIGMETs :   Divers  Orages  Givrage  Turbulence  Onde Orograph.  Cendres Volcan.







- Altitude de l'aérodrome : 436 ft
- Code IATA : ANG
- Voir les cartes d'approche


LFBU - Angoulême Brie Champniers

DERNIER METAR :
  • 291730Z AUTO 18007KT 150V210 CAVOK 18/M03 Q1008 NOSIG

METARs EXPIRÉS :
  • 291700Z AUTO 18006KT 110V240 CAVOK 19/M02 Q1008 NOSIG
  • 291630Z AUTO 16009KT 120V190 CAVOK 19/M02 Q1009 NOSIG
  • 291600Z AUTO 20007KT 160V250 CAVOK 19/M03 Q1009 NOSIG
  • 291530Z AUTO 19008KT 140V250 CAVOK 19/M02 Q1009 NOSIG
  • 291500Z AUTO 13008KT 090V180 CAVOK 19/M01 Q1009 NOSIG

TAF TAF LFBU
Valide du 29 à 12h jusqu'au 30 à 12h UTC


291100Z 2912/3012 15008KT CAVOK
BECMG 3004/3006 16015G25KT -RA
TEMPO 3009/3012 18018G30KT 4000 RA BKN045 SCT060CB
Pas de NOTAMs connus pour ce terrain.



MET'MAP, la Météo Aéronautique d'un coup d'oeil ! - Copyright ORBIFLY Décembre 2007 - Disclaimer

ORBIFLY MET'MAP TEAM :

Programmation & Développement : Alexandra Zaïnal
Conception & Développement : Baudouin d'Aumeries
Co-Programmation & Développement : Marc-Olivier Méhu
Soutien technique & logistique : Manuel Goepfert

Contact : metmap@orbifly.com




SOURCES & CREDITS :

   NOAA